Fairfax Station, Virginia
Current Conditions -  °F | °C
As of 2:58 PM on Friday 19 Dec 2014 (Local Time) from KDAA Reporting Station
Broken Clouds Broken Clouds  
Wind Chill: 33°   Ceiling: 4000
Heat Index: 40°   Visibility: 10mi
Dew Point: 23°   Wind: 12mph
Humidity: 51%   Direction: 290°WNW
Pressure: 30.16"   Gusts: NA
Location:  38.8°N, 77.32°W
Report Text: KDAA 191958Z AUTO 29010KT 10SM BKN040 04/M05 A3016 RMK AO2 SLP217 T00431051
Loading
Personal Weather Stations






























Interactive Weather Map New forecast layout! Learn more

10-Day Weather Forecast

Advertisements
Track Severe Weather on mobile